Terminal Aerodrome Forecast
Issued by NWS Detroit/Pontiac, MI

Home | Current Version | Previous Version | Text Only | Print | Product List | Glossary On
Versions: 1 2 3 4 5 6 7 8 9 10 11 12 13 14 15 16 17 18 19 20
000
FTUS43 KDTX 210520
TAFFNT
TAF
KFNT 210520Z 2106/2206 16006KT P6SM SCT250
     FM210900 16003KT 5SM BR FEW040 BKN250
     FM211100 VRB03KT 3SM BR SCT035 BKN200
     FM211300 18008KT P6SM SCT040 SCT200
     FM220000 13004KT P6SM SCT200=

USA.gov is the U.S. government's official web portal to all federal, state and local government web resources and services.